Time;durP1;ratioP1;P1;durP2;ratioP2;P2;SDS_P1;SDS_P2;PMS_P1;PMS_P2;Temp;Humidity;BMP_temperature;BMP_pressure;BME280_temperature;BME280_humidity;BME280_pressure;Samples;Min_cycle;Max_cycle;Signal;HPM_P1;HPM_P2
2022/04/02 00:01:21;;;;;;;6.45;3.20;;;;;;;1.04;67.39;101454.19;5011473;28;20026;-66
2022/04/02 00:03:47;;;;;;;5.32;3.55;;;;;;;1.05;67.29;101454.13;5011105;28;20065;-66
2022/04/02 00:06:12;;;;;;;6.05;3.35;;;;;;;1.06;67.07;101455.00;5011516;28;20316;-66
2022/04/02 00:08:37;;;;;;;7.88;3.30;;;;;;;1.07;66.45;101454.09;5011212;28;20022;-66
2022/04/02 00:11:03;;;;;;;5.10;3.40;;;;;;;1.07;66.75;101457.56;5011196;28;20033;-66
2022/04/02 00:13:30;;;;;;;6.00;3.20;;;;;;;1.08;66.45;101463.66;5011604;28;20480;-66
2022/04/02 00:15:57;;;;;;;5.00;3.17;;;;;;;1.09;67.23;101462.75;5011501;28;20041;-66
2022/04/02 00:18:22;;;;;;;4.18;3.28;;;;;;;1.10;66.16;101459.25;5011051;28;20491;-66
2022/04/02 00:20:47;;;;;;;5.00;3.42;;;;;;;1.10;66.50;101464.50;5009907;28;20026;-66
2022/04/02 00:25:56;;;;;;;4.68;3.42;;;;;;;1.11;66.67;101460.94;5011432;28;20044;-66
2022/04/02 00:28:21;;;;;;;6.95;3.50;;;;;;;1.10;66.46;101470.56;5011041;28;20030;-66
2022/04/02 00:30:47;;;;;;;4.70;3.17;;;;;;;1.11;66.39;101466.19;5011115;28;20088;-66
2022/04/02 00:33:12;;;;;;;4.88;3.20;;;;;;;1.12;66.05;101470.53;5009693;28;20511;-66
2022/04/02 00:35:38;;;;;;;3.80;3.00;;;;;;;1.11;66.22;101463.56;5010910;28;20068;-66
2022/04/02 00:38:03;;;;;;;4.10;3.13;;;;;;;1.11;66.05;101458.34;5010833;28;20491;-66
2022/04/02 00:40:29;;;;;;;5.10;3.20;;;;;;;1.13;66.33;101461.75;5010865;28;20026;-66
2022/04/02 00:42:55;;;;;;;3.65;3.25;;;;;;;1.10;66.08;101454.88;5010650;28;20384;-66
2022/04/02 00:45:20;;;;;;;4.00;3.25;;;;;;;1.11;65.58;101459.19;5030813;28;20557;-66
2022/04/02 00:47:46;;;;;;;3.95;3.08;;;;;;;1.10;65.91;101454.88;5037611;28;20030;-66
2022/04/02 00:50:11;;;;;;;5.25;3.50;;;;;;;1.11;66.66;101459.19;5009261;28;20029;-66
2022/04/02 00:52:37;;;;;;;5.82;3.20;;;;;;;1.11;66.04;101463.56;5011137;28;20025;-66
2022/04/02 00:55:02;;;;;;;8.27;3.40;;;;;;;1.11;65.76;101459.19;5010432;28;20026;-67
2022/04/02 00:57:29;;;;;;;3.88;3.13;;;;;;;1.11;65.99;101458.34;5025553;28;20058;-66
2022/04/02 00:59:55;;;;;;;3.60;3.30;;;;;;;1.11;66.41;101458.34;5010747;28;20022;-67
2022/04/02 01:02:20;;;;;;;5.00;3.15;;;;;;;1.10;66.08;101467.09;5010321;28;20026;-66
2022/04/02 01:04:47;;;;;;;4.47;2.90;;;;;;;1.10;66.48;101457.47;5010230;28;20025;-66
2022/04/02 01:07:12;;;;;;;8.20;3.42;;;;;;;1.09;66.47;101455.75;5010128;28;20072;-66
2022/04/02 01:09:37;;;;;;;3.78;2.88;;;;;;;1.09;65.49;101461.00;5010203;28;20391;-66
2022/04/02 01:12:04;;;;;;;4.15;3.15;;;;;;;1.07;66.19;101454.94;5009898;28;20156;-66
2022/04/02 01:14:29;;;;;;;3.88;3.38;;;;;;;1.06;65.99;101452.38;5010031;28;20034;-64
2022/04/02 01:16:55;;;;;;;6.63;3.50;;;;;;;1.06;66.12;101453.22;5009935;28;20080;-65
2022/04/02 01:19:20;;;;;;;5.38;3.13;;;;;;;1.05;66.40;101463.72;5009972;28;20029;-65
2022/04/02 01:21:46;;;;;;;4.85;3.25;;;;;;;1.06;66.08;101462.84;5009797;28;20037;-65
2022/04/02 01:24:12;;;;;;;4.35;3.20;;;;;;;1.05;65.99;101458.50;5009854;28;20045;-66
2022/04/02 01:26:38;;;;;;;4.78;3.60;;;;;;;1.04;66.20;101457.66;5010221;28;20037;-66
2022/04/02 01:29:04;;;;;;;4.85;3.28;;;;;;;1.04;65.65;101462.88;5008460;28;20021;-66
2022/04/02 01:31:30;;;;;;;6.40;3.20;;;;;;;1.04;65.87;101462.88;5009975;28;20018;-66
2022/04/02 01:33:55;;;;;;;4.68;3.28;;;;;;;1.04;65.50;101464.66;5009811;28;20091;-65
2022/04/02 01:36:21;;;;;;;4.18;3.17;;;;;;;1.04;65.96;101465.50;5024908;28;20065;-65
2022/04/02 01:38:48;;;;;;;4.28;3.20;;;;;;;1.03;65.92;101461.19;5009773;28;20025;-65
2022/04/02 01:41:14;;;;;;;5.35;3.30;;;;;;;1.03;64.61;101455.94;5009897;28;20084;-65
2022/04/02 01:43:39;;;;;;;4.95;3.50;;;;;;;1.02;65.79;101458.59;5009795;28;20120;-65
2022/04/02 01:46:05;;;;;;;6.20;3.50;;;;;;;1.01;65.75;101454.25;5041930;28;20470;-65
2022/04/02 01:48:31;;;;;;;5.22;3.00;;;;;;;1.00;65.41;101458.66;5026176;28;20021;-65
2022/04/02 01:50:56;;;;;;;4.63;3.13;;;;;;;0.99;65.37;101454.28;5009750;28;20022;-66
2022/04/02 01:53:23;;;;;;;6.53;3.05;;;;;;;0.99;65.62;101461.28;5009774;28;20049;-66
2022/04/02 01:55:49;;;;;;;3.88;2.90;;;;;;;0.99;65.75;101469.13;5009552;28;20108;-66
2022/04/02 01:58:15;;;;;;;4.15;3.10;;;;;;;1.00;66.05;101463.00;5009786;28;20157;-66
2022/04/02 02:00:40;;;;;;;6.32;3.28;;;;;;;0.98;65.76;101468.25;5009439;28;20180;-66
2022/04/02 02:03:09;;;;;;;5.93;3.20;;;;;;;0.98;65.83;101467.41;5009512;28;20488;-65
2022/04/02 02:05:35;;;;;;;6.38;3.00;;;;;;;0.98;66.44;101475.25;5008137;28;20029;-65
2022/04/02 02:08:00;;;;;;;4.30;3.40;;;;;;;0.97;66.06;101473.56;5009620;28;20069;-66
2022/04/02 02:10:26;;;;;;;5.35;3.13;;;;;;;0.96;65.49;101466.59;5009377;28;20053;-65
2022/04/02 02:12:51;;;;;;;4.32;3.40;;;;;;;0.95;65.80;101473.59;5009282;28;20124;-65
2022/04/02 02:15:17;;;;;;;6.68;3.38;;;;;;;0.95;65.79;101470.09;5024523;28;20026;-66
2022/04/02 02:17:49;;;;;;;3.53;3.22;;;;;;;0.93;65.89;101480.59;5024458;28;20034;-66
2022/04/02 02:20:16;;;;;;;5.10;3.47;;;;;;;0.92;66.07;101478.91;5013452;28;20108;-66
2022/04/02 02:22:43;;;;;;;3.75;3.30;;;;;;;0.90;65.73;101472.88;5013092;28;20025;-66
2022/04/02 02:25:11;;;;;;;5.68;3.20;;;;;;;0.86;66.29;101471.22;5060840;22;20329;-77
2022/04/02 02:27:38;;;;;;;5.82;3.13;;;;;;;0.87;65.73;101478.16;5028409;28;20037;-77
2022/04/02 02:30:05;;;;;;;4.53;3.33;;;;;;;0.86;66.02;101479.06;5047237;28;20416;-77
2022/04/02 02:32:36;;;;;;;3.63;3.33;;;;;;;0.84;65.63;101484.31;5023797;28;20037;-77
2022/04/02 02:38:10;;;;;;;4.32;3.17;;;;;;;0.79;65.21;101478.34;5011719;28;20053;-77
2022/04/02 02:40:37;;;;;;;6.15;3.33;;;;;;;0.77;65.72;101482.78;5012132;28;20053;-77
2022/04/02 02:43:04;;;;;;;4.22;3.10;;;;;;;0.76;65.52;101482.81;5026157;28;20037;-77
2022/04/02 02:45:31;;;;;;;3.70;3.05;;;;;;;0.74;65.80;101491.53;5024502;28;20084;-77
2022/04/02 02:47:57;;;;;;;4.07;3.00;;;;;;;0.73;65.50;101496.81;5012137;28;20437;-77
2022/04/02 02:50:23;;;;;;;3.65;3.20;;;;;;;0.73;65.83;101491.59;5012229;28;20026;-78
2022/04/02 02:52:48;;;;;;;4.70;3.10;;;;;;;0.73;65.21;101488.97;5013341;28;20077;-78
2022/04/02 02:55:13;;;;;;;4.45;3.35;;;;;;;0.71;65.48;101485.53;5013139;28;20393;-78
2022/04/02 02:57:39;;;;;;;4.75;3.42;;;;;;;0.71;65.51;101488.16;5012922;28;20026;-78
2022/04/02 03:00:07;;;;;;;4.15;3.28;;;;;;;0.70;65.75;101491.66;5025822;28;20040;-77
2022/04/02 03:02:33;;;;;;;5.53;3.70;;;;;;;0.68;66.01;101490.84;5032263;28;20040;-78
2022/04/02 03:04:58;;;;;;;4.20;2.92;;;;;;;0.69;66.15;101503.03;5048038;28;20029;-78
2022/04/02 03:07:23;;;;;;;4.00;3.33;;;;;;;0.67;66.20;101502.22;5032829;28;20044;-78
2022/04/02 03:09:49;;;;;;;4.57;2.75;;;;;;;0.66;65.66;101495.25;5019822;28;20033;-78
2022/04/02 03:12:14;;;;;;;4.38;3.33;;;;;;;0.62;66.09;101488.41;5012756;28;20105;-78
2022/04/02 03:14:39;;;;;;;5.28;2.88;;;;;;;0.66;65.88;101492.63;5012878;28;20061;-77
2022/04/02 03:17:04;;;;;;;9.05;3.15;;;;;;;0.64;65.44;101489.22;5012735;28;20030;-77
2022/04/02 03:19:30;;;;;;;4.30;2.83;;;;;;;0.65;66.01;101493.53;5012537;28;20037;-78
2022/04/02 03:21:55;;;;;;;3.95;3.33;;;;;;;0.65;65.93;101496.13;5012672;28;20492;-78
2022/04/02 03:24:20;;;;;;;4.05;2.95;;;;;;;0.63;65.91;101496.16;5012271;28;20029;-78
2022/04/02 03:26:45;;;;;;;5.32;3.28;;;;;;;0.61;65.65;101495.38;5012233;28;20420;-78
2022/04/02 03:29:11;;;;;;;4.38;3.17;;;;;;;0.60;65.95;101492.78;5012375;28;20030;-78
2022/04/02 03:31:36;;;;;;;5.13;2.97;;;;;;;0.59;65.99;101497.16;5012823;28;20026;-77
2022/04/02 03:34:01;;;;;;;3.45;3.08;;;;;;;0.58;66.23;101492.81;5023190;28;20036;-78
2022/04/02 03:36:27;;;;;;;5.60;3.10;;;;;;;0.58;66.16;101494.59;5017380;28;20038;-78
2022/04/02 03:38:53;;;;;;;5.47;3.38;;;;;;;0.57;66.44;101491.13;5012812;28;20711;-78
2022/04/02 03:41:18;;;;;;;3.80;3.17;;;;;;;0.56;66.44;101489.38;5012385;28;20041;-78
2022/04/02 03:43:44;;;;;;;3.83;3.40;;;;;;;0.54;66.26;101493.81;5012438;28;20468;-78
2022/04/02 03:48:53;;;;;;;3.80;3.08;;;;;;;0.49;66.71;101500.91;5028744;28;20569;-78
2022/04/02 03:51:18;;;;;;;4.47;3.40;;;;;;;0.49;66.92;101499.13;5030630;28;20061;-78
2022/04/02 03:53:44;;;;;;;3.42;3.00;;;;;;;0.48;66.90;101510.50;5031636;28;20060;-77
2022/04/02 03:56:10;;;;;;;3.42;3.08;;;;;;;0.45;67.02;101507.97;5038062;28;20061;-78
2022/04/02 03:58:36;;;;;;;5.28;3.28;;;;;;;0.45;66.34;101509.69;5012352;28;20109;-78
2022/04/02 04:01:01;;;;;;;4.45;2.88;;;;;;;0.45;66.94;101509.69;5011684;28;20595;-78
2022/04/02 04:03:27;;;;;;;3.95;2.95;;;;;;;0.45;66.38;101514.91;5011814;28;20022;-78
2022/04/02 04:05:52;;;;;;;4.97;3.30;;;;;;;0.44;66.56;101515.84;5011756;28;20022;-78
2022/04/02 04:08:17;;;;;;;4.63;3.55;;;;;;;0.42;66.23;101515.88;5011879;28;20496;-77
2022/04/02 04:10:43;;;;;;;5.40;3.10;;;;;;;0.42;66.17;101520.22;5011925;28;20117;-78
2022/04/02 04:13:08;;;;;;;4.75;3.40;;;;;;;0.40;66.59;101525.50;5011489;28;20465;-78
2022/04/02 04:15:33;;;;;;;5.43;3.55;;;;;;;0.40;66.81;101524.63;5012238;28;20030;-77
2022/04/02 04:17:58;;;;;;;5.68;3.58;;;;;;;0.40;66.24;101529.84;5011573;28;20042;-77
2022/04/02 04:20:24;;;;;;;6.53;3.15;;;;;;;0.41;66.54;101529.81;5012061;28;20484;-78
2022/04/02 04:22:49;;;;;;;5.30;3.72;;;;;;;0.36;66.18;101526.44;5011365;28;20040;-77
2022/04/02 04:25:14;;;;;;;5.55;3.42;;;;;;;0.39;66.53;101528.16;5011083;28;20038;-77
2022/04/02 04:27:40;;;;;;;3.53;3.22;;;;;;;0.35;66.64;101536.06;5011354;28;20021;-77
2022/04/02 04:30:06;;;;;;;4.55;2.88;;;;;;;0.38;67.01;101535.09;5011593;28;20029;-77
2022/04/02 04:32:33;;;;;;;6.15;3.60;;;;;;;0.36;66.99;101537.75;5011647;28;20091;-77
2022/04/02 04:34:58;;;;;;;5.03;3.45;;;;;;;0.36;66.61;101527.31;5030956;28;20112;-77
2022/04/02 04:37:24;;;;;;;7.53;3.72;;;;;;;0.36;66.75;101531.69;5025100;28;20108;-78
2022/04/02 04:39:49;;;;;;;5.13;3.50;;;;;;;0.34;66.76;101525.63;5011043;28;20033;-77
2022/04/02 04:42:15;;;;;;;5.40;3.53;;;;;;;0.34;67.26;101536.94;5010316;28;20037;-77
2022/04/02 04:44:41;;;;;;;5.57;3.38;;;;;;;0.35;66.86;101537.78;5010967;28;20032;-78
2022/04/02 04:47:06;;;;;;;4.28;3.25;;;;;;;0.35;67.02;101543.91;5011070;28;20034;-78
2022/04/02 04:49:32;;;;;;;6.70;3.30;;;;;;;0.35;66.69;101551.72;5010856;28;20057;-77
2022/04/02 04:51:57;;;;;;;4.13;3.35;;;;;;;0.35;66.99;101553.47;5010741;28;20052;-78
2022/04/02 04:54:22;;;;;;;5.70;3.30;;;;;;;0.34;66.76;101564.84;5010869;28;20041;-77
2022/04/02 04:56:47;;;;;;;4.25;3.35;;;;;;;0.33;67.01;101565.72;5010630;28;20405;-78
2022/04/02 04:59:13;;;;;;;5.07;3.40;;;;;;;0.32;66.70;101570.09;5010880;28;20026;-78
2022/04/02 05:01:38;;;;;;;7.85;3.45;;;;;;;0.27;67.11;101563.25;5010533;28;20427;-78
2022/04/02 05:04:05;;;;;;;5.00;2.88;;;;;;;0.32;66.44;101572.72;5010736;28;20033;-78
2022/04/02 05:06:31;;;;;;;3.30;3.00;;;;;;;0.30;66.43;101574.50;5010653;28;20072;-77
2022/04/02 05:08:57;;;;;;;7.55;3.05;;;;;;;0.31;66.42;101578.81;5010883;28;20116;-78
2022/04/02 05:11:22;;;;;;;4.30;3.25;;;;;;;0.31;66.18;101586.66;5010729;28;20301;-78
2022/04/02 05:13:47;;;;;;;3.42;2.80;;;;;;;0.25;66.51;101570.25;5010523;28;20076;-77
2022/04/02 05:16:12;;;;;;;4.40;2.95;;;;;;;0.29;65.61;101577.16;5011277;28;20030;-77
2022/04/02 05:18:39;;;;;;;4.25;3.00;;;;;;;0.29;66.11;101579.75;5020035;28;20025;-78
2022/04/02 05:21:04;;;;;;;4.20;2.75;;;;;;;0.29;65.78;101584.97;5031964;28;20022;-77
2022/04/02 05:23:30;;;;;;;4.18;2.97;;;;;;;0.27;65.80;101595.47;5031291;28;20094;-77
2022/04/02 05:25:55;;;;;;;4.47;3.33;;;;;;;0.28;65.43;101591.09;5031464;28;20119;-78
2022/04/02 05:28:20;;;;;;;3.63;2.88;;;;;;;0.31;65.55;101598.88;5012201;28;20030;-77
2022/04/02 05:30:46;;;;;;;3.65;3.20;;;;;;;0.29;66.18;101605.88;5012134;28;20526;-77
2022/04/02 05:33:11;;;;;;;4.00;2.80;;;;;;;0.29;65.32;101606.75;5011682;28;20014;-77
2022/04/02 05:35:37;;;;;;;3.53;2.80;;;;;;;0.28;65.20;101604.16;5011671;28;20520;-78
2022/04/02 05:38:02;;;;;;;3.60;2.92;;;;;;;0.31;65.36;101611.94;5011683;28;20071;-77
2022/04/02 05:40:27;;;;;;;4.20;3.00;;;;;;;0.32;65.59;101619.75;5012329;28;20022;-77
2022/04/02 05:42:52;;;;;;;4.30;3.20;;;;;;;0.32;65.59;101624.97;5026781;28;20037;-77
2022/04/02 05:45:18;;;;;;;3.08;2.80;;;;;;;0.32;65.98;101624.97;5011368;28;20041;-77
2022/04/02 05:47:49;;;;;;;5.13;3.38;;;;;;;0.34;66.33;101623.16;5011404;28;20462;-77
2022/04/02 05:50:15;;;;;;;5.45;3.00;;;;;;;0.34;66.27;101625.78;5011575;28;20041;-77
2022/04/02 05:52:41;;;;;;;7.55;2.97;;;;;;;0.36;65.80;101634.44;5011473;28;20034;-76
2022/04/02 05:55:08;;;;;;;3.85;3.17;;;;;;;0.36;66.35;101637.06;5017513;28;20033;-77
2022/04/02 05:57:35;;;;;;;3.13;2.83;;;;;;;0.38;66.39;101638.78;5028417;28;20029;-77
2022/04/02 06:00:01;;;;;;;5.07;3.38;;;;;;;0.39;66.80;101650.97;5031019;28;20629;-77
2022/04/02 06:02:27;;;;;;;5.10;3.05;;;;;;;0.40;66.40;101647.44;5026536;28;20026;-77
2022/04/02 06:04:52;;;;;;;5.82;3.45;;;;;;;0.42;66.79;101650.88;5011382;28;20030;-77
2022/04/02 06:07:18;;;;;;;5.03;2.78;;;;;;;0.43;66.37;101652.63;5011391;28;20033;-77
2022/04/02 06:09:43;;;;;;;4.63;3.30;;;;;;;0.39;66.64;101633.53;5011511;28;20037;-77
2022/04/02 06:12:09;;;;;;;4.20;3.10;;;;;;;0.48;66.85;101659.47;5011136;28;20034;-77
2022/04/02 06:14:34;;;;;;;5.63;2.88;;;;;;;0.50;66.80;101657.69;5013242;28;20030;-77
2022/04/02 06:16:59;;;;;;;4.93;3.03;;;;;;;0.52;66.42;101660.28;5010745;28;20050;-77
2022/04/02 06:19:25;;;;;;;3.45;3.10;;;;;;;0.52;67.12;101661.13;5023579;28;20415;-77
2022/04/02 06:21:50;;;;;;;3.80;3.40;;;;;;;0.58;66.68;101661.88;5030798;28;20041;-77
2022/04/02 06:24:15;;;;;;;4.07;3.05;;;;;;;0.64;67.00;101665.22;5033388;28;20057;-77
2022/04/02 06:26:41;;;;;;;3.80;3.35;;;;;;;0.66;66.24;101667.81;5040265;28;20050;-77
2022/04/02 06:29:06;;;;;;;8.15;3.22;;;;;;;0.70;66.36;101667.72;5031022;28;20064;-77
2022/04/02 06:31:31;;;;;;;4.75;3.40;;;;;;;0.71;66.96;101672.03;5031850;28;20041;-77
2022/04/02 06:33:56;;;;;;;4.45;3.38;;;;;;;0.76;66.67;101674.53;5032120;28;20488;-77
2022/04/02 06:36:22;;;;;;;4.38;3.47;;;;;;;0.78;66.88;101679.75;5019557;28;20022;-77
2022/04/02 06:38:47;;;;;;;8.45;3.45;;;;;;;0.82;66.81;101684.03;5029285;28;20087;-77
2022/04/02 06:41:13;;;;;;;6.18;3.38;;;;;;;0.86;66.25;101693.50;5018950;28;20072;-77
2022/04/02 06:43:38;;;;;;;5.65;3.70;;;;;;;0.88;66.44;101682.13;5024556;28;20041;-77
2022/04/02 06:46:04;;;;;;;5.80;3.30;;;;;;;0.92;66.57;101691.63;5025310;28;20033;-77
2022/04/02 06:48:29;;;;;;;6.03;3.13;;;;;;;0.95;66.30;101695.94;5020372;28;20042;-77
2022/04/02 06:50:54;;;;;;;6.20;3.00;;;;;;;1.00;66.95;101698.41;5017944;28;20483;-77
2022/04/02 06:53:20;;;;;;;5.40;3.45;;;;;;;1.03;66.64;101693.13;5030155;28;20052;-78
2022/04/02 06:55:46;;;;;;;4.47;3.03;;;;;;;1.08;66.53;101704.34;5031366;28;20021;-77
2022/04/02 06:58:42;;;;;;;5.07;3.17;;;;;;;1.14;66.20;101714.66;5030975;28;20468;-77
2022/04/02 07:01:07;;;;;;;6.13;3.42;;;;;;;1.18;65.77;101708.44;5030608;28;20699;-77
2022/04/02 07:03:35;;;;;;;4.45;3.10;;;;;;;1.22;65.06;101711.88;5028085;28;20030;-78
2022/04/02 07:06:00;;;;;;;5.10;3.03;;;;;;;1.27;66.17;101713.47;5015316;28;20065;-78
2022/04/02 07:08:26;;;;;;;5.53;3.03;;;;;;;1.33;66.07;101717.69;5024415;28;20064;-77
2022/04/02 07:10:51;;;;;;;6.00;3.42;;;;;;;1.40;65.37;101726.25;5032080;28;20029;-77
2022/04/02 07:13:16;;;;;;;3.03;2.83;;;;;;;1.45;65.54;101724.41;5034011;28;20041;-78
2022/04/02 07:15:41;;;;;;;4.38;3.25;;;;;;;1.51;64.88;101728.63;5022341;28;20026;-78
2022/04/02 07:18:09;;;;;;;5.65;3.40;;;;;;;1.56;65.15;101730.22;5018393;28;20046;-77
2022/04/02 07:20:36;;;;;;;5.15;3.38;;;;;;;1.64;64.78;101740.53;5024760;28;20479;-77
2022/04/02 07:23:03;;;;;;;8.38;3.25;;;;;;;1.70;65.27;101732.53;5016344;28;20148;-78
2022/04/02 07:25:29;;;;;;;5.53;3.30;;;;;;;1.79;65.82;101740.13;5019630;28;20424;-78
2022/04/02 07:27:57;;;;;;;6.80;3.40;;;;;;;1.88;65.03;101735.56;5032531;28;20104;-77
2022/04/02 07:30:24;;;;;;;4.40;3.53;;;;;;;1.99;65.20;101738.75;5028457;28;20152;-77
2022/04/02 07:32:50;;;;;;;7.45;3.25;;;;;;;2.07;64.83;101731.56;5030438;28;20109;-77
2022/04/02 07:35:15;;;;;;;7.35;3.58;;;;;;;2.17;64.28;101743.50;5034094;28;20108;-77
2022/04/02 07:38:02;;;;;;;5.43;3.20;;;;;;;2.29;63.96;101752.78;5023003;28;20403;-77
2022/04/02 07:40:40;;;;;;;4.60;3.40;;;;;;;2.36;63.40;101754.34;5021223;28;20056;-77
2022/04/02 07:43:15;;;;;;;6.15;3.63;;;;;;;2.48;62.37;101758.41;5021093;28;20164;-78
2022/04/02 07:45:42;;;;;;;5.45;3.70;;;;;;;2.59;63.30;101763.34;5013785;28;20033;-78
2022/04/02 07:48:09;;;;;;;7.45;3.60;;;;;;;2.66;61.70;101746.50;5024033;28;20373;-78
2022/04/02 07:50:35;;;;;;;7.43;3.50;;;;;;;2.84;60.66;101763.47;5033198;28;20036;-78
2022/04/02 07:53:06;;;;;;;4.45;3.22;;;;;;;2.97;61.39;101758.72;5030428;28;20027;-78
2022/04/02 07:55:35;;;;;;;4.28;3.13;;;;;;;3.13;61.02;101767.88;5018953;28;20041;-78
2022/04/02 07:58:03;;;;;;;3.80;2.88;;;;;;;3.27;60.20;101759.56;5031544;28;20030;-78
2022/04/02 08:00:31;;;;;;;5.18;3.40;;;;;;;3.39;59.92;101771.44;5024435;28;20017;-78
2022/04/02 08:02:57;;;;;;;4.65;3.30;;;;;;;3.45;59.42;101749.38;5019177;28;20030;-78
2022/04/02 08:05:23;;;;;;;4.30;3.10;;;;;;;3.65;59.93;101752.22;5013674;28;20159;-79
2022/04/02 08:07:50;;;;;;;4.63;3.45;;;;;;;3.82;59.67;101759.53;5020356;28;20113;-78
2022/04/02 08:10:20;;;;;;;6.00;3.53;;;;;;;4.01;60.14;101765.03;5033529;28;20033;-79
2022/04/02 08:12:46;;;;;;;4.57;2.88;;;;;;;4.18;58.77;101763.56;5033156;28;20028;-79
2022/04/02 08:15:20;;;;;;;5.15;3.72;;;;;;;4.26;57.89;101758.91;5028509;28;20045;-79
2022/04/02 08:17:47;;;;;;;6.63;3.78;;;;;;;4.22;56.49;101760.78;5024760;28;20038;-78
2022/04/02 08:20:17;;;;;;;5.07;3.60;;;;;;;4.25;57.33;101767.72;5028674;28;20420;-78
2022/04/02 08:22:44;;;;;;;5.18;3.80;;;;;;;4.29;57.54;101766.69;5031788;28;20029;-78
2022/04/02 08:25:11;;;;;;;6.55;3.40;;;;;;;4.35;57.23;101768.25;5031628;28;20133;-78
2022/04/02 08:27:45;;;;;;;5.80;3.47;;;;;;;4.43;57.57;101774.94;5021953;28;20088;-79
2022/04/02 08:30:15;;;;;;;5.90;4.00;;;;;;;4.37;55.60;101764.63;5013419;28;20488;-78
2022/04/02 08:32:47;;;;;;;9.10;4.50;;;;;;;4.44;55.81;101773.16;5014340;28;20066;-79
2022/04/02 08:35:13;;;;;;;5.68;3.72;;;;;;;4.54;57.24;101774.53;5013776;28;20042;-80
2022/04/02 08:38:09;;;;;;;6.88;3.45;;;;;;;4.69;57.03;101774.91;5013584;28;20079;-79
2022/04/02 08:41:24;;;;;;;7.05;4.13;;;;;;;4.75;57.22;101788.69;5013922;28;20091;-79
2022/04/02 08:43:59;;;;;;;6.03;3.47;;;;;;;4.73;55.33;101787.91;5032750;28;20109;-80
2022/04/02 08:46:34;;;;;;;5.15;3.70;;;;;;;4.67;56.38;101788.13;5034942;28;20030;-80
2022/04/02 08:49:35;;;;;;;4.03;3.63;;;;;;;4.67;55.75;101792.53;5033138;28;20035;-80
2022/04/02 08:52:13;;;;;;;5.75;3.30;;;;;;;4.67;56.66;101785.50;5006202;28;20544;-80
2022/04/02 08:54:40;;;;;;;5.07;3.58;;;;;;;4.64;56.14;101799.59;5014734;28;20030;-80
2022/04/02 08:57:28;;;;;;;4.82;4.20;;;;;;;4.71;56.69;101804.66;5031581;28;20029;-79
2022/04/02 09:00:08;;;;;;;8.27;3.90;;;;;;;4.67;57.04;101797.78;5031425;28;20496;-79
2022/04/02 09:02:52;;;;;;;9.13;3.90;;;;;;;4.69;55.65;101809.13;5034088;28;20022;-79
2022/04/02 09:05:36;;;;;;;7.97;3.90;;;;;;;4.68;55.83;101823.19;5014187;28;20041;-79
2022/04/02 09:08:32;;;;;;;4.85;3.95;;;;;;;4.70;57.08;101814.31;5022386;28;20033;-79
2022/04/02 09:11:22;;;;;;;6.55;4.10;;;;;;;4.67;55.90;101821.47;5033171;28;20095;-80
2022/04/02 09:14:05;;;;;;;6.40;4.30;;;;;;;4.79;56.99;101823.66;5019076;28;20026;-80
2022/04/02 09:17:01;;;;;;;4.57;3.72;;;;;;;4.85;56.28;101820.81;5013727;28;20034;-80
2022/04/02 09:19:43;;;;;;;4.22;3.45;;;;;;;4.72;55.12;101822.16;5021219;28;20033;-80
2022/04/02 09:22:11;;;;;;;8.32;4.35;;;;;;;4.73;55.66;101831.75;5017040;28;20041;-80
2022/04/02 09:25:04;;;;;;;5.30;3.80;;;;;;;4.79;56.04;101836.81;5012226;28;20044;-79
2022/04/02 09:27:51;;;;;;;6.00;4.03;;;;;;;4.82;56.60;101831.44;5024876;28;20447;-79
2022/04/02 09:31:10;;;;;;;5.32;3.95;;;;;;;4.82;56.47;101824.41;5031537;28;20393;-80
2022/04/02 09:33:55;;;;;;;5.60;3.65;;;;;;;4.88;56.37;101841.75;5033092;28;20499;-80
2022/04/02 09:36:29;;;;;;;7.28;4.47;;;;;;;4.88;56.45;101836.50;5017461;28;20066;-79
2022/04/02 09:39:17;;;;;;;6.88;4.20;;;;;;;4.98;56.07;101847.53;5023990;28;20046;-79
2022/04/02 09:41:51;;;;;;;6.22;4.00;;;;;;;4.93;55.63;101842.44;5025830;28;20052;-79
2022/04/02 09:44:52;;;;;;;4.95;4.07;;;;;;;4.91;55.31;101841.66;5031088;28;20124;-79
2022/04/02 09:47:23;;;;;;;5.35;4.10;;;;;;;4.79;54.08;101844.72;5031339;28;20033;-80
2022/04/02 09:50:08;;;;;;;4.75;3.75;;;;;;;4.76;55.73;101848.31;5029995;28;20079;-79
2022/04/02 09:52:36;;;;;;;5.07;3.67;;;;;;;4.84;55.95;101840.13;5030743;28;20582;-79
2022/04/02 09:55:05;;;;;;;6.38;4.80;;;;;;;5.11;56.69;101837.38;5036977;28;20044;-79
2022/04/02 09:57:49;;;;;;;7.32;4.20;;;;;;;5.34;56.03;101841.78;5051065;28;20025;-80
2022/04/02 10:00:16;;;;;;;6.50;4.20;;;;;;;5.44;54.74;101839.66;5011744;28;20567;-80
2022/04/02 10:03:00;;;;;;;6.05;4.10;;;;;;;5.47;54.17;101831.63;5020714;28;20045;-79
2022/04/02 10:05:54;;;;;;;4.32;3.92;;;;;;;5.57;54.83;101833.84;5012109;28;20036;-78
2022/04/02 10:08:38;;;;;;;7.68;4.10;;;;;;;5.66;53.93;101840.53;5023403;28;20523;-79
2022/04/02 10:11:06;;;;;;;5.25;3.80;;;;;;;5.69;53.09;101832.47;5011881;28;20388;-79
2022/04/02 10:13:35;;;;;;;5.50;3.50;;;;;;;5.89;51.98;101834.31;5024103;28;20037;-80
2022/04/02 10:16:04;;;;;;;5.65;3.90;;;;;;;6.02;50.47;101834.69;5031779;28;20032;-79
2022/04/02 10:18:34;;;;;;;8.35;4.00;;;;;;;5.98;50.26;101829.59;5031313;28;20049;-80
2022/04/02 10:21:05;;;;;;;8.63;3.88;;;;;;;6.01;50.87;101824.22;5023192;28;20034;-78
2022/04/02 10:23:35;;;;;;;6.13;4.05;;;;;;;6.05;49.96;101831.94;5025362;28;20163;-79
2022/04/02 10:26:07;;;;;;;5.20;3.85;;;;;;;6.02;50.06;101825.94;5026416;28;20056;-79
2022/04/02 10:28:46;;;;;;;6.60;4.00;;;;;;;5.87;50.32;101816.84;5030823;28;20265;-80
2022/04/02 10:31:33;;;;;;;4.93;3.83;;;;;;;5.81;50.49;101825.88;5024745;28;20357;-79
2022/04/02 10:34:06;;;;;;;5.68;4.10;;;;;;;5.75;52.52;101824.34;5011671;28;20038;-79
2022/04/02 10:36:41;;;;;;;7.82;3.70;;;;;;;5.73;52.19;101828.81;5011671;28;20018;-79
2022/04/02 10:39:07;;;;;;;6.38;4.05;;;;;;;5.61;52.10;101824.03;5012206;28;20042;-78
2022/04/02 10:41:38;;;;;;;6.45;3.67;;;;;;;5.49;53.48;101832.41;5014969;28;20054;-79
2022/04/02 10:44:10;;;;;;;6.72;4.22;;;;;;;5.37;54.51;101826.72;5015096;28;20041;-79
2022/04/02 10:46:39;;;;;;;4.70;3.42;;;;;;;5.31;52.64;101834.88;5014827;28;20026;-80
2022/04/02 10:49:07;;;;;;;6.85;3.97;;;;;;;5.26;54.04;101834.19;5015087;28;20088;-80
2022/04/02 10:51:36;;;;;;;4.10;3.72;;;;;;;5.22;54.28;101832.59;5019085;28;20353;-80
2022/04/02 10:54:09;;;;;;;6.72;3.85;;;;;;;5.14;52.44;101827.59;5034473;28;20373;-79
2022/04/02 10:56:41;;;;;;;4.95;4.00;;;;;;;5.12;53.92;101828.59;5018222;28;20022;-79
2022/04/02 10:59:08;;;;;;;3.97;3.58;;;;;;;5.00;52.64;101835.16;5017930;28;20037;-79
2022/04/02 11:01:38;;;;;;;5.25;4.03;;;;;;;4.97;53.40;101825.59;5021673;28;20045;-78
2022/04/02 11:04:15;;;;;;;6.90;3.88;;;;;;;4.90;53.42;101839.91;5014393;28;20042;-78
2022/04/02 11:07:00;;;;;;;6.65;4.03;;;;;;;4.83;53.61;101841.06;5015667;28;20836;-78
2022/04/02 11:09:39;;;;;;;5.90;4.03;;;;;;;4.73;53.82;101837.91;5023335;28;20064;-79
2022/04/02 11:12:07;;;;;;;6.93;3.83;;;;;;;4.62;54.60;101837.44;5014483;28;20022;-80
2022/04/02 11:15:02;;;;;;;6.30;3.53;;;;;;;4.60;56.01;101847.16;5012685;28;20046;-79
2022/04/02 11:17:29;;;;;;;7.90;4.40;;;;;;;4.55;55.85;101842.03;4997741;28;20129;-79
2022/04/02 11:20:10;;;;;;;10.50;3.97;;;;;;;4.62;56.03;101840.06;5018334;28;20076;-79
2022/04/02 11:22:55;;;;;;;9.70;5.60;;;;;;;4.70;56.51;101832.75;5026622;28;20026;-79
2022/04/02 11:25:25;;;;;;;7.93;3.67;;;;;;;4.70;55.03;101827.47;5013830;28;20077;-78
2022/04/02 11:27:55;;;;;;;7.38;5.07;;;;;;;4.71;53.66;101828.34;5014487;28;20057;-79
2022/04/02 11:30:22;;;;;;;5.22;4.10;;;;;;;4.81;54.49;101814.78;5014988;28;20044;-80
2022/04/02 11:32:50;;;;;;;4.28;3.70;;;;;;;5.00;54.58;101822.00;5029763;28;20037;-79
2022/04/02 11:35:21;;;;;;;5.10;3.90;;;;;;;5.20;53.62;101826.53;5030361;28;20523;-79
2022/04/02 11:37:54;;;;;;;6.97;3.70;;;;;;;5.32;51.66;101818.13;5020435;28;20035;-79
2022/04/02 11:40:24;;;;;;;7.88;3.97;;;;;;;5.41;51.56;101821.31;5032000;28;20055;-79
2022/04/02 11:42:51;;;;;;;4.88;3.10;;;;;;;5.42;48.35;101830.97;5033598;28;20087;-79
2022/04/02 11:45:19;;;;;;;6.18;3.40;;;;;;;5.36;48.55;101832.91;5033808;28;20048;-79
2022/04/02 11:47:49;;;;;;;4.37;3.93;;;;;;;5.27;49.31;101835.88;5032267;28;20431;-79
2022/04/02 11:50:22;;;;;;;;;;;;;;;5.39;51.80;101831.91;5015597;28;20300;-79
2022/04/02 11:52:58;;;;;;;4.97;3.30;;;;;;;5.36;49.98;101827.66;5013694;28;19988;-79